sensor_id;sensor_type;location;lat;lon;timestamp;pressure;altitude;pressure_sealevel;temperature;humidity
20145;BME280;10233;50.814;6.590;2022-12-18T00:01:00;101463.41;;;-6.50;100.00
20145;BME280;10233;50.814;6.590;2022-12-18T00:02:06;101454.97;;;-6.53;100.00
20145;BME280;10233;50.814;6.590;2022-12-18T00:03:06;101455.84;;;-6.54;100.00
20145;BME280;10233;50.814;6.590;2022-12-18T00:04:12;101452.13;;;-6.47;100.00
20145;BME280;10233;50.814;6.590;2022-12-18T00:05:15;101457.53;;;-6.53;100.00
20145;BME280;10233;50.814;6.590;2022-12-18T00:06:16;101459.22;;;-6.52;100.00
20145;BME280;10233;50.814;6.590;2022-12-18T00:07:16;101465.41;;;-6.56;100.00
20145;BME280;10233;50.814;6.590;2022-12-18T00:08:18;101458.19;;;-6.48;100.00
20145;BME280;10233;50.814;6.590;2022-12-18T00:09:19;101459.28;;;-6.54;100.00
20145;BME280;10233;50.814;6.590;2022-12-18T00:10:20;101462.06;;;-6.58;100.00
20145;BME280;10233;50.814;6.590;2022-12-18T00:11:23;101454.22;;;-6.57;100.00
20145;BME280;10233;50.814;6.590;2022-12-18T00:12:26;101459.53;;;-6.60;100.00
20145;BME280;10233;50.814;6.590;2022-12-18T00:13:27;101462.44;;;-6.67;100.00
20145;BME280;10233;50.814;6.590;2022-12-18T00:14:27;101456.47;;;-6.69;100.00
20145;BME280;10233;50.814;6.590;2022-12-18T00:15:28;101452.59;;;-6.79;100.00
20145;BME280;10233;50.814;6.590;2022-12-18T00:16:29;101456.19;;;-6.83;100.00
20145;BME280;10233;50.814;6.590;2022-12-18T00:17:31;101456.78;;;-6.77;100.00
20145;BME280;10233;50.814;6.590;2022-12-18T00:18:32;101454.34;;;-6.80;100.00
20145;BME280;10233;50.814;6.590;2022-12-18T00:19:33;101452.44;;;-6.75;100.00
20145;BME280;10233;50.814;6.590;2022-12-18T00:20:37;101466.09;;;-6.73;100.00
20145;BME280;10233;50.814;6.590;2022-12-18T00:21:41;101462.94;;;-6.59;100.00
20145;BME280;10233;50.814;6.590;2022-12-18T00:22:42;101471.50;;;-6.37;100.00
20145;BME280;10233;50.814;6.590;2022-12-18T00:23:43;101464.38;;;-6.32;100.00
20145;BME280;10233;50.814;6.590;2022-12-18T00:24:44;101457.94;;;-6.42;100.00
20145;BME280;10233;50.814;6.590;2022-12-18T00:25:45;101464.66;;;-6.38;100.00
20145;BME280;10233;50.814;6.590;2022-12-18T00:26:45;101462.63;;;-6.32;100.00
20145;BME280;10233;50.814;6.590;2022-12-18T00:27:46;101461.84;;;-6.34;100.00
20145;BME280;10233;50.814;6.590;2022-12-18T00:28:47;101474.50;;;-6.28;100.00
20145;BME280;10233;50.814;6.590;2022-12-18T00:29:48;101463.59;;;-6.34;100.00
20145;BME280;10233;50.814;6.590;2022-12-18T00:30:49;101470.69;;;-6.39;100.00
20145;BME280;10233;50.814;6.590;2022-12-18T00:31:51;101466.25;;;-6.36;100.00
20145;BME280;10233;50.814;6.590;2022-12-18T00:32:52;101477.56;;;-6.38;100.00
20145;BME280;10233;50.814;6.590;2022-12-18T00:33:56;101474.47;;;-6.46;100.00
20145;BME280;10233;50.814;6.590;2022-12-18T00:34:56;101479.94;;;-6.34;100.00
20145;BME280;10233;50.814;6.590;2022-12-18T00:36:06;101475.00;;;-6.38;100.00
20145;BME280;10233;50.814;6.590;2022-12-18T00:37:07;101480.41;;;-6.44;100.00
20145;BME280;10233;50.814;6.590;2022-12-18T00:38:07;101474.72;;;-6.52;100.00
20145;BME280;10233;50.814;6.590;2022-12-18T00:39:10;101479.63;;;-6.46;100.00
20145;BME280;10233;50.814;6.590;2022-12-18T00:40:11;101479.38;;;-6.40;100.00
20145;BME280;10233;50.814;6.590;2022-12-18T00:41:13;101474.56;;;-6.49;100.00
20145;BME280;10233;50.814;6.590;2022-12-18T00:42:35;101475.75;;;-6.56;100.00
20145;BME280;10233;50.814;6.590;2022-12-18T00:43:54;101471.34;;;-6.54;100.00
20145;BME280;10233;50.814;6.590;2022-12-18T00:44:54;101474.72;;;-6.52;100.00
20145;BME280;10233;50.814;6.590;2022-12-18T00:45:55;101473.81;;;-6.51;100.00
20145;BME280;10233;50.814;6.590;2022-12-18T00:46:56;101460.50;;;-6.42;100.00
20145;BME280;10233;50.814;6.590;2022-12-18T00:47:56;101475.09;;;-6.41;100.00
20145;BME280;10233;50.814;6.590;2022-12-18T00:48:57;101469.22;;;-6.45;100.00
20145;BME280;10233;50.814;6.590;2022-12-18T00:49:58;101474.56;;;-6.49;100.00
20145;BME280;10233;50.814;6.590;2022-12-18T00:50:59;101465.16;;;-6.50;100.00
20145;BME280;10233;50.814;6.590;2022-12-18T00:51:59;101463.75;;;-6.57;100.00
20145;BME280;10233;50.814;6.590;2022-12-18T00:53:00;101464.66;;;-6.58;100.00
20145;BME280;10233;50.814;6.590;2022-12-18T00:54:03;101466.25;;;-6.56;100.00
20145;BME280;10233;50.814;6.590;2022-12-18T00:55:05;101460.84;;;-6.50;100.00
20145;BME280;10233;50.814;6.590;2022-12-18T00:56:05;101453.41;;;-6.57;100.00
20145;BME280;10233;50.814;6.590;2022-12-18T00:57:06;101454.16;;;-6.55;100.00
20145;BME280;10233;50.814;6.590;2022-12-18T00:58:07;101457.59;;;-6.55;100.00
20145;BME280;10233;50.814;6.590;2022-12-18T00:59:09;101450.94;;;-6.60;100.00
20145;BME280;10233;50.814;6.590;2022-12-18T01:00:13;101450.34;;;-6.67;100.00
20145;BME280;10233;50.814;6.590;2022-12-18T01:01:17;101451.97;;;-6.64;100.00
20145;BME280;10233;50.814;6.590;2022-12-18T01:02:17;101451.00;;;-6.62;100.00
20145;BME280;10233;50.814;6.590;2022-12-18T01:03:18;101457.97;;;-6.64;100.00
20145;BME280;10233;50.814;6.590;2022-12-18T01:04:18;101454.53;;;-6.64;100.00
20145;BME280;10233;50.814;6.590;2022-12-18T01:05:19;101461.28;;;-6.60;100.00
20145;BME280;10233;50.814;6.590;2022-12-18T01:06:20;101459.41;;;-6.57;100.00
20145;BME280;10233;50.814;6.590;2022-12-18T01:07:21;101456.91;;;-6.58;100.00
20145;BME280;10233;50.814;6.590;2022-12-18T01:08:21;101455.78;;;-6.53;100.00
20145;BME280;10233;50.814;6.590;2022-12-18T01:09:21;101457.66;;;-6.56;100.00
20145;BME280;10233;50.814;6.590;2022-12-18T01:10:23;101458.69;;;-6.60;100.00
20145;BME280;10233;50.814;6.590;2022-12-18T01:11:23;101454.97;;;-6.53;100.00
20145;BME280;10233;50.814;6.590;2022-12-18T01:12:24;101459.28;;;-6.54;100.00
20145;BME280;10233;50.814;6.590;2022-12-18T01:13:24;101457.00;;;-6.61;100.00
20145;BME280;10233;50.814;6.590;2022-12-18T01:14:25;101454.09;;;-6.54;100.00
20145;BME280;10233;50.814;6.590;2022-12-18T01:15:27;101468.00;;;-6.56;100.00
20145;BME280;10233;50.814;6.590;2022-12-18T01:16:27;101460.84;;;-6.50;100.00
20145;BME280;10233;50.814;6.590;2022-12-18T01:17:28;101465.31;;;-6.53;100.00
20145;BME280;10233;50.814;6.590;2022-12-18T01:18:28;101469.63;;;-6.54;100.00
20145;BME280;10233;50.814;6.590;2022-12-18T01:19:29;101468.66;;;-6.51;100.00
20145;BME280;10233;50.814;6.590;2022-12-18T01:20:29;101465.09;;;-6.49;100.00
20145;BME280;10233;50.814;6.590;2022-12-18T01:21:30;101468.66;;;-6.51;100.00
20145;BME280;10233;50.814;6.590;2022-12-18T01:22:30;101451.31;;;-6.49;100.00
20145;BME280;10233;50.814;6.590;2022-12-18T01:23:31;101451.72;;;-6.58;100.00
20145;BME280;10233;50.814;6.590;2022-12-18T01:24:34;101449.31;;;-6.63;100.00
20145;BME280;10233;50.814;6.590;2022-12-18T01:25:37;101451.13;;;-6.65;100.00
20145;BME280;10233;50.814;6.590;2022-12-18T01:26:38;101445.38;;;-6.71;100.00
20145;BME280;10233;50.814;6.590;2022-12-18T01:27:38;101453.25;;;-6.74;100.00
20145;BME280;10233;50.814;6.590;2022-12-18T01:28:39;101456.41;;;-6.68;100.00
20145;BME280;10233;50.814;6.590;2022-12-18T01:29:40;101451.25;;;-6.68;100.00
20145;BME280;10233;50.814;6.590;2022-12-18T01:30:40;101453.03;;;-6.68;100.00
20145;BME280;10233;50.814;6.590;2022-12-18T01:31:41;101447.84;;;-6.48;100.00
20145;BME280;10233;50.814;6.590;2022-12-18T01:32:41;101443.44;;;-6.46;100.00
20145;BME280;10233;50.814;6.590;2022-12-18T01:33:42;101451.78;;;-6.40;100.00
20145;BME280;10233;50.814;6.590;2022-12-18T01:34:42;101447.59;;;-6.42;100.00
20145;BME280;10233;50.814;6.590;2022-12-18T01:35:43;101449.69;;;-6.32;100.00
20145;BME280;10233;50.814;6.590;2022-12-18T01:36:43;101456.25;;;-6.43;100.00
20145;BME280;10233;50.814;6.590;2022-12-18T01:37:44;101458.63;;;-6.39;100.00
20145;BME280;10233;50.814;6.590;2022-12-18T01:38:44;101455.00;;;-6.35;100.00
20145;BME280;10233;50.814;6.590;2022-12-18T01:39:45;101456.94;;;-6.40;100.00
20145;BME280;10233;50.814;6.590;2022-12-18T01:40:47;101454.03;;;-6.32;100.00
20145;BME280;10233;50.814;6.590;2022-12-18T01:41:47;101456.50;;;-6.29;100.00
20145;BME280;10233;50.814;6.590;2022-12-18T01:43:03;101457.31;;;-6.29;100.00
20145;BME280;10233;50.814;6.590;2022-12-18T01:45:43;101454.97;;;-6.33;100.00
20145;BME280;10233;50.814;6.590;2022-12-18T01:46:43;101451.41;;;-6.31;100.00
20145;BME280;10233;50.814;6.590;2022-12-18T01:47:47;101445.03;;;-6.24;100.00
20145;BME280;10233;50.814;6.590;2022-12-18T01:48:51;101449.50;;;-6.27;100.00
20145;BME280;10233;50.814;6.590;2022-12-18T01:49:53;101440.09;;;-6.28;100.00
20145;BME280;10233;50.814;6.590;2022-12-18T01:50:54;101444.28;;;-6.26;100.00
20145;BME280;10233;50.814;6.590;2022-12-18T01:51:55;101440.50;;;-6.19;100.00
20145;BME280;10233;50.814;6.590;2022-12-18T01:53:59;101439.53;;;-6.16;100.00
20145;BME280;10233;50.814;6.590;2022-12-18T01:55:02;101437.88;;;-6.17;100.00
20145;BME280;10233;50.814;6.590;2022-12-18T01:56:04;101443.16;;;-6.20;100.00
20145;BME280;10233;50.814;6.590;2022-12-18T01:57:06;101444.97;;;-6.22;100.00
20145;BME280;10233;50.814;6.590;2022-12-18T01:58:06;101453.16;;;-6.13;100.00
20145;BME280;10233;50.814;6.590;2022-12-18T01:59:09;101452.28;;;-6.12;100.00
20145;BME280;10233;50.814;6.590;2022-12-18T02:00:14;101448.84;;;-6.12;100.00
20145;BME280;10233;50.814;6.590;2022-12-18T02:01:16;101447.19;;;-6.13;100.00
20145;BME280;10233;50.814;6.590;2022-12-18T02:02:17;101441.31;;;-6.17;100.00
20145;BME280;10233;50.814;6.590;2022-12-18T02:03:18;101437.75;;;-6.14;100.00
20145;BME280;10233;50.814;6.590;2022-12-18T02:04:24;101441.84;;;-6.10;100.00
20145;BME280;10233;50.814;6.590;2022-12-18T02:09:50;101443.09;;;-6.19;100.00
20145;BME280;10233;50.814;6.590;2022-12-18T02:11:12;101444.44;;;-6.10;100.00
20145;BME280;10233;50.814;6.590;2022-12-18T02:14:46;101453.41;;;-5.99;100.00
20145;BME280;10233;50.814;6.590;2022-12-18T02:16:04;101451.94;;;-6.04;100.00
20145;BME280;10233;50.814;6.590;2022-12-18T02:17:16;101450.34;;;-6.07;100.00
20145;BME280;10233;50.814;6.590;2022-12-18T02:18:31;101452.00;;;-6.06;100.00
20145;BME280;10233;50.814;6.590;2022-12-18T02:26:47;101439.06;;;-6.24;100.00
20145;BME280;10233;50.814;6.590;2022-12-18T02:27:49;101440.09;;;-6.28;100.00
20145;BME280;10233;50.814;6.590;2022-12-18T02:29:55;101435.16;;;-6.34;100.00
20145;BME280;10233;50.814;6.590;2022-12-18T02:31:01;101444.63;;;-6.33;100.00
20145;BME280;10233;50.814;6.590;2022-12-18T02:32:07;101442.09;;;-6.35;100.00
20145;BME280;10233;50.814;6.590;2022-12-18T02:33:11;101431.41;;;-6.27;100.00
20145;BME280;10233;50.814;6.590;2022-12-18T02:34:13;101432.97;;;-6.23;100.00
20145;BME280;10233;50.814;6.590;2022-12-18T02:35:27;101437.09;;;-6.19;100.00
20145;BME280;10233;50.814;6.590;2022-12-18T02:36:33;101429.75;;;-6.28;100.00
20145;BME280;10233;50.814;6.590;2022-12-18T02:37:35;101426.25;;;-6.27;100.00
20145;BME280;10233;50.814;6.590;2022-12-18T02:38:42;101429.22;;;-6.36;100.00
20145;BME280;10233;50.814;6.590;2022-12-18T02:39:48;101432.34;;;-6.28;100.00
20145;BME280;10233;50.814;6.590;2022-12-18T02:40:51;101426.94;;;-6.24;100.00
20145;BME280;10233;50.814;6.590;2022-12-18T02:41:53;101428.72;;;-6.24;100.00
20145;BME280;10233;50.814;6.590;2022-12-18T02:43:12;101422.47;;;-6.20;100.00
20145;BME280;10233;50.814;6.590;2022-12-18T02:44:14;101428.22;;;-6.14;100.00
20145;BME280;10233;50.814;6.590;2022-12-18T02:45:16;101421.44;;;-6.16;100.00
20145;BME280;10233;50.814;6.590;2022-12-18T02:47:32;101424.56;;;-6.28;100.00
20145;BME280;10233;50.814;6.590;2022-12-18T02:48:34;101425.50;;;-6.29;100.00
20145;BME280;10233;50.814;6.590;2022-12-18T02:54:38;101432.38;;;-6.30;100.00
20145;BME280;10233;50.814;6.590;2022-12-18T02:56:07;101433.41;;;-6.34;100.00
20145;BME280;10233;50.814;6.590;2022-12-18T02:57:22;101429.00;;;-6.32;100.00
20145;BME280;10233;50.814;6.590;2022-12-18T02:59:56;101425.97;;;-6.21;100.00
20145;BME280;10233;50.814;6.590;2022-12-18T03:01:03;101426.81;;;-6.21;100.00
20145;BME280;10233;50.814;6.590;2022-12-18T03:02:22;101431.94;;;-6.19;100.00
20145;BME280;10233;50.814;6.590;2022-12-18T03:03:34;101427.25;;;-6.11;100.00
20145;BME280;10233;50.814;6.590;2022-12-18T03:04:49;101429.19;;;-6.16;100.00
20145;BME280;10233;50.814;6.590;2022-12-18T03:06:08;101425.97;;;-6.21;100.00
20145;BME280;10233;50.814;6.590;2022-12-18T03:07:16;101432.75;;;-6.19;100.00
20145;BME280;10233;50.814;6.590;2022-12-18T03:08:31;101428.78;;;-6.26;100.00
20145;BME280;10233;50.814;6.590;2022-12-18T03:09:38;101429.81;;;-6.30;100.00
20145;BME280;10233;50.814;6.590;2022-12-18T03:10:54;101430.84;;;-6.34;100.00
20145;BME280;10233;50.814;6.590;2022-12-18T03:12:04;101433.09;;;-6.26;100.00
20145;BME280;10233;50.814;6.590;2022-12-18T03:13:31;101430.16;;;-6.19;100.00
20145;BME280;10233;50.814;6.590;2022-12-18T03:14:34;101425.56;;;-6.12;100.00
20145;BME280;10233;50.814;6.590;2022-12-18T03:15:45;101422.47;;;-6.20;100.00
20145;BME280;10233;50.814;6.590;2022-12-18T03:16:49;101427.91;;;-6.26;100.00
20145;BME280;10233;50.814;6.590;2022-12-18T03:17:59;101415.56;;;-6.20;100.00
20145;BME280;10233;50.814;6.590;2022-12-18T03:19:06;101426.19;;;-6.26;100.00
20145;BME280;10233;50.814;6.590;2022-12-18T03:20:13;101425.84;;;-6.18;100.00
20145;BME280;10233;50.814;6.590;2022-12-18T03:21:17;101416.22;;;-6.15;100.00
20145;BME280;10233;50.814;6.590;2022-12-18T03:22:20;101422.00;;;-6.28;100.00
20145;BME280;10233;50.814;6.590;2022-12-18T03:23:29;101412.34;;;-6.25;100.00
20145;BME280;10233;50.814;6.590;2022-12-18T03:24:33;101406.25;;;-6.24;100.00
20145;BME280;10233;50.814;6.590;2022-12-18T03:25:40;101405.44;;;-6.24;100.00
20145;BME280;10233;50.814;6.590;2022-12-18T03:26:44;101405.94;;;-6.16;100.00
20145;BME280;10233;50.814;6.590;2022-12-18T03:27:51;101398.31;;;-6.19;100.00
20145;BME280;10233;50.814;6.590;2022-12-18T03:29:18;101395.09;;;-6.24;100.00
20145;BME280;10233;50.814;6.590;2022-12-18T03:30:20;101388.09;;;-6.22;100.00
20145;BME280;10233;50.814;6.590;2022-12-18T03:31:23;101396.63;;;-6.20;100.00
20145;BME280;10233;50.814;6.590;2022-12-18T03:32:29;101386.38;;;-6.22;100.00
20145;BME280;10233;50.814;6.590;2022-12-18T03:33:43;101388.09;;;-6.22;100.00
20145;BME280;10233;50.814;6.590;2022-12-18T03:34:49;101396.63;;;-6.20;100.00
20145;BME280;10233;50.814;6.590;2022-12-18T03:35:54;101397.59;;;-6.23;100.00
20145;BME280;10233;50.814;6.590;2022-12-18T03:36:56;101400.13;;;-6.21;100.00
20145;BME280;10233;50.814;6.590;2022-12-18T03:37:58;101394.19;;;-6.23;100.00
20145;BME280;10233;50.814;6.590;2022-12-18T03:38:59;101394.81;;;-6.18;100.00
20145;BME280;10233;50.814;6.590;2022-12-18T03:40:01;101394.66;;;-6.15;100.00
20145;BME280;10233;50.814;6.590;2022-12-18T03:43:08;101397.19;;;-6.14;100.00
20145;BME280;10233;50.814;6.590;2022-12-18T03:45:26;101389.38;;;-6.12;100.00
20145;BME280;10233;50.814;6.590;2022-12-18T03:46:30;101383.34;;;-6.13;100.00
20145;BME280;10233;50.814;6.590;2022-12-18T03:49:00;101383.44;;;-6.14;100.00
20145;BME280;10233;50.814;6.590;2022-12-18T03:51:41;101386.91;;;-6.15;100.00
20145;BME280;10233;50.814;6.590;2022-12-18T03:54:26;101392.88;;;-6.13;100.00
20145;BME280;10233;50.814;6.590;2022-12-18T03:55:35;101382.81;;;-6.19;100.00
20145;BME280;10233;50.814;6.590;2022-12-18T03:56:43;101379.31;;;-6.18;100.00
20145;BME280;10233;50.814;6.590;2022-12-18T03:57:46;101377.75;;;-6.22;100.00
20145;BME280;10233;50.814;6.590;2022-12-18T03:58:48;101374.97;;;-6.18;100.00
20145;BME280;10233;50.814;6.590;2022-12-18T04:00:00;101385.66;;;-6.25;100.00
20145;BME280;10233;50.814;6.590;2022-12-18T04:01:16;101377.75;;;-6.22;100.00
20145;BME280;10233;50.814;6.590;2022-12-18T04:02:18;101378.53;;;-6.20;100.00
20145;BME280;10233;50.814;6.590;2022-12-18T04:03:21;101376.91;;;-6.23;100.00
20145;BME280;10233;50.814;6.590;2022-12-18T04:04:24;101382.41;;;-6.30;100.00
20145;BME280;10233;50.814;6.590;2022-12-18T04:05:27;101372.03;;;-6.29;100.00
20145;BME280;10233;50.814;6.590;2022-12-18T04:06:29;101372.59;;;-6.22;100.00
20145;BME280;10233;50.814;6.590;2022-12-18T04:07:31;101375.63;;;-6.33;100.00
20145;BME280;10233;50.814;6.590;2022-12-18T04:08:32;101367.69;;;-6.28;100.00
20145;BME280;10233;50.814;6.590;2022-12-18T04:09:40;101367.81;;;-6.31;100.00
20145;BME280;10233;50.814;6.590;2022-12-18T04:10:42;101367.81;;;-6.31;100.00
20145;BME280;10233;50.814;6.590;2022-12-18T04:11:42;101366.28;;;-6.35;100.00
20145;BME280;10233;50.814;6.590;2022-12-18T04:12:45;101379.19;;;-6.35;100.00
20145;BME280;10233;50.814;6.590;2022-12-18T04:13:47;101373.06;;;-6.33;100.00
20145;BME280;10233;50.814;6.590;2022-12-18T04:14:57;101370.81;;;-6.40;100.00
20145;BME280;10233;50.814;6.590;2022-12-18T04:15:57;101367.25;;;-6.38;100.00
20145;BME280;10233;50.814;6.590;2022-12-18T04:16:58;101361.75;;;-6.30;100.00
20145;BME280;10233;50.814;6.590;2022-12-18T04:18:04;101376.38;;;-6.29;100.00
20145;BME280;10233;50.814;6.590;2022-12-18T04:19:12;101371.31;;;-6.32;100.00
20145;BME280;10233;50.814;6.590;2022-12-18T04:20:16;101373.13;;;-6.34;100.00
20145;BME280;10233;50.814;6.590;2022-12-18T04:21:18;101370.81;;;-6.40;100.00
20145;BME280;10233;50.814;6.590;2022-12-18T04:22:20;101372.41;;;-6.38;100.00
20145;BME280;10233;50.814;6.590;2022-12-18T04:23:26;101368.22;;;-6.40;100.00
20145;BME280;10233;50.814;6.590;2022-12-18T04:24:30;101367.75;;;-6.48;100.00
20145;BME280;10233;50.814;6.590;2022-12-18T04:25:50;101371.72;;;-6.41;100.00
20145;BME280;10233;50.814;6.590;2022-12-18T04:27:00;101370.69;;;-6.37;100.00
20145;BME280;10233;50.814;6.590;2022-12-18T04:28:06;101363.34;;;-6.28;100.00
20145;BME280;10233;50.814;6.590;2022-12-18T04:29:07;101365.38;;;-6.34;100.00
20145;BME280;10233;50.814;6.590;2022-12-18T04:30:09;101368.88;;;-6.35;100.00
20145;BME280;10233;50.814;6.590;2022-12-18T04:31:09;101364.31;;;-6.30;100.00
20145;BME280;10233;50.814;6.590;2022-12-18T04:32:11;101364.31;;;-6.30;100.00
20145;BME280;10233;50.814;6.590;2022-12-18T04:33:16;101369.78;;;-6.36;100.00
20145;BME280;10233;50.814;6.590;2022-12-18T04:34:16;101372.41;;;-6.38;100.00
20145;BME280;10233;50.814;6.590;2022-12-18T04:35:22;101375.22;;;-6.42;100.00
20145;BME280;10233;50.814;6.590;2022-12-18T04:36:23;101369.69;;;-6.53;100.00
20145;BME280;10233;50.814;6.590;2022-12-18T04:37:24;101367.59;;;-6.45;100.00
20145;BME280;10233;50.814;6.590;2022-12-18T04:38:25;101368.09;;;-6.37;100.00
20145;BME280;10233;50.814;6.590;2022-12-18T04:39:33;101363.91;;;-6.21;100.00
20145;BME280;10233;50.814;6.590;2022-12-18T04:40:39;101360.59;;;-6.23;100.00
20145;BME280;10233;50.814;6.590;2022-12-18T04:41:46;101354.38;;;-6.19;100.00
20145;BME280;10233;50.814;6.590;2022-12-18T04:42:47;101345.53;;;-6.15;100.00
20145;BME280;10233;50.814;6.590;2022-12-18T04:43:48;101355.06;;;-6.16;100.00
20145;BME280;10233;50.814;6.590;2022-12-18T04:44:48;101358.91;;;-6.24;100.00
20145;BME280;10233;50.814;6.590;2022-12-18T04:45:49;101347.59;;;-6.22;100.00
20145;BME280;10233;50.814;6.590;2022-12-18T04:46:49;101345.06;;;-6.23;100.00
20145;BME280;10233;50.814;6.590;2022-12-18T04:47:49;101350.94;;;-6.20;100.00
20145;BME280;10233;50.814;6.590;2022-12-18T04:48:50;101338.63;;;-6.15;100.00
20145;BME280;10233;50.814;6.590;2022-12-18T04:49:50;101340.25;;;-6.12;100.00
20145;BME280;10233;50.814;6.590;2022-12-18T04:50:51;101340.59;;;-6.20;100.00
20145;BME280;10233;50.814;6.590;2022-12-18T04:51:51;101344.78;;;-6.17;100.00
20145;BME280;10233;50.814;6.590;2022-12-18T04:52:54;101342.94;;;-6.15;100.00
20145;BME280;10233;50.814;6.590;2022-12-18T04:53:54;101348.28;;;-6.18;100.00
20145;BME280;10233;50.814;6.590;2022-12-18T04:54:55;101340.94;;;-6.09;100.00
20145;BME280;10233;50.814;6.590;2022-12-18T04:56:15;101340.03;;;-6.08;100.00
20145;BME280;10233;50.814;6.590;2022-12-18T04:57:16;101344.44;;;-6.10;100.00
20145;BME280;10233;50.814;6.590;2022-12-18T04:58:18;101338.34;;;-6.09;100.00
20145;BME280;10233;50.814;6.590;2022-12-18T04:59:18;101335.69;;;-6.07;100.00
20145;BME280;10233;50.814;6.590;2022-12-18T05:00:19;101325.28;;;-6.06;100.00
20145;BME280;10233;50.814;6.590;2022-12-18T05:01:20;101335.47;;;-6.03;100.00
20145;BME280;10233;50.814;6.590;2022-12-18T05:02:21;101333.88;;;-6.05;100.00
20145;BME280;10233;50.814;6.590;2022-12-18T05:03:21;101325.22;;;-6.04;100.00
20145;BME280;10233;50.814;6.590;2022-12-18T05:04:22;101332.06;;;-6.03;100.00
20145;BME280;10233;50.814;6.590;2022-12-18T05:05:23;101332.75;;;-6.00;100.00
20145;BME280;10233;50.814;6.590;2022-12-18T05:06:23;101328.69;;;-6.05;100.00
20145;BME280;10233;50.814;6.590;2022-12-18T05:07:24;101327.09;;;-6.08;100.00
20145;BME280;10233;50.814;6.590;2022-12-18T05:08:24;101321.56;;;-6.00;100.00
20145;BME280;10233;50.814;6.590;2022-12-18T05:09:25;101330.66;;;-6.10;100.00
20145;BME280;10233;50.814;6.590;2022-12-18T05:10:25;101324.59;;;-6.09;100.00
20145;BME280;10233;50.814;6.590;2022-12-18T05:11:26;101323.53;;;-6.05;100.00
20145;BME280;10233;50.814;6.590;2022-12-18T05:12:26;101326.03;;;-6.04;100.00
20145;BME280;10233;50.814;6.590;2022-12-18T05:13:27;101330.41;;;-6.04;100.00
20145;BME280;10233;50.814;6.590;2022-12-18T05:14:28;101333.63;;;-5.99;100.00
20145;BME280;10233;50.814;6.590;2022-12-18T05:15:30;101327.03;;;-6.06;100.00
20145;BME280;10233;50.814;6.590;2022-12-18T05:16:31;101325.34;;;-6.07;100.00
20145;BME280;10233;50.814;6.590;2022-12-18T05:17:31;101324.59;;;-6.09;100.00
20145;BME280;10233;50.814;6.590;2022-12-18T05:18:32;101333.19;;;-6.09;100.00
20145;BME280;10233;50.814;6.590;2022-12-18T05:19:32;101327.72;;;-6.03;100.00
20145;BME280;10233;50.814;6.590;2022-12-18T05:20:33;101334.66;;;-6.03;100.00
20145;BME280;10233;50.814;6.590;2022-12-18T05:21:33;101341.63;;;-6.05;100.00
20145;BME280;10233;50.814;6.590;2022-12-18T05:22:33;101344.03;;;-6.01;100.00
20145;BME280;10233;50.814;6.590;2022-12-18T05:23:34;101343.09;;;-6.00;100.00
20145;BME280;10233;50.814;6.590;2022-12-18T05:24:35;101348.50;;;-6.04;100.00
20145;BME280;10233;50.814;6.590;2022-12-18T05:25:35;101356.66;;;-5.95;100.00
20145;BME280;10233;50.814;6.590;2022-12-18T05:26:36;101357.78;;;-6.00;100.00
20145;BME280;10233;50.814;6.590;2022-12-18T05:27:36;101353.44;;;-6.00;100.00
20145;BME280;10233;50.814;6.590;2022-12-18T05:28:37;101354.22;;;-5.98;100.00
20145;BME280;10233;50.814;6.590;2022-12-18T05:29:37;101370.88;;;-6.03;100.00
20145;BME280;10233;50.814;6.590;2022-12-18T05:30:37;101362.94;;;-6.00;100.00
20145;BME280;10233;50.814;6.590;2022-12-18T05:31:38;101363.22;;;-6.06;100.00
20145;BME280;10233;50.814;6.590;2022-12-18T05:32:40;101368.69;;;-6.12;100.00
20145;BME280;10233;50.814;6.590;2022-12-18T05:33:40;101379.16;;;-6.15;100.00
20145;BME280;10233;50.814;6.590;2022-12-18T05:34:41;101368.81;;;-6.15;100.00
20145;BME280;10233;50.814;6.590;2022-12-18T05:35:41;101368.63;;;-6.11;100.00
20145;BME280;10233;50.814;6.590;2022-12-18T05:36:41;101368.75;;;-6.14;100.00
20145;BME280;10233;50.814;6.590;2022-12-18T05:37:42;101371.78;;;-6.04;100.00
20145;BME280;10233;50.814;6.590;2022-12-18T05:38:42;101371.00;;;-6.06;100.00
20145;BME280;10233;50.814;6.590;2022-12-18T05:39:43;101369.59;;;-6.13;100.00
20145;BME280;10233;50.814;6.590;2022-12-18T05:40:44;101378.34;;;-6.16;100.00
20145;BME280;10233;50.814;6.590;2022-12-18T05:41:44;101374.06;;;-6.17;100.00
20145;BME280;10233;50.814;6.590;2022-12-18T05:42:45;101372.03;;;-6.10;100.00
20145;BME280;10233;50.814;6.590;2022-12-18T05:43:45;101380.13;;;-6.18;100.00
20145;BME280;10233;50.814;6.590;2022-12-18T05:44:46;101384.31;;;-6.15;100.00
20145;BME280;10233;50.814;6.590;2022-12-18T05:45:46;101381.75;;;-6.15;100.00
20145;BME280;10233;50.814;6.590;2022-12-18T05:46:46;101385.25;;;-6.16;100.00
20145;BME280;10233;50.814;6.590;2022-12-18T05:47:47;101385.94;;;-6.13;100.00
20145;BME280;10233;50.814;6.590;2022-12-18T05:48:47;101389.66;;;-6.18;100.00
20145;BME280;10233;50.814;6.590;2022-12-18T05:49:50;101400.41;;;-6.09;100.00
20145;BME280;10233;50.814;6.590;2022-12-18T05:50:51;101405.97;;;-6.18;100.00
20145;BME280;10233;50.814;6.590;2022-12-18T05:51:51;101401.31;;;-6.28;100.00
20145;BME280;10233;50.814;6.590;2022-12-18T05:52:52;101405.28;;;-6.21;100.00
20145;BME280;10233;50.814;6.590;2022-12-18T05:53:52;101403.03;;;-6.29;100.00
20145;BME280;10233;50.814;6.590;2022-12-18T05:54:53;101405.69;;;-6.30;100.00
20145;BME280;10233;50.814;6.590;2022-12-18T05:55:53;101402.94;;;-6.07;100.00
20145;BME280;10233;50.814;6.590;2022-12-18T05:56:54;101404.66;;;-6.08;100.00
20145;BME280;10233;50.814;6.590;2022-12-18T05:57:54;101397.63;;;-6.04;100.00
20145;BME280;10233;50.814;6.590;2022-12-18T05:58:55;101402.38;;;-6.14;100.00
20145;BME280;10233;50.814;6.590;2022-12-18T05:59:55;101396.38;;;-6.14;100.00
20145;BME280;10233;50.814;6.590;2022-12-18T06:00:56;101405.16;;;-6.18;100.00